Time;durP1;ratioP1;P1;durP2;ratioP2;P2;SDS_P1;SDS_P2;PMS_P1;PMS_P2;Temp;Humidity;BMP_temperature;BMP_pressure;BME280_temperature;BME280_humidity;BME280_pressure;Samples;Min_cycle;Max_cycle;Signal;HPM_P1;HPM_P2
2022/03/21 00:04:22;;;;;;;92.77;46.83;;;2.50;99.90;;;;;;10382427;28;20278;-79
2022/03/21 00:09:43;;;;;;;88.93;46.70;;;2.60;99.90;;;;;;10396108;28;20456;-80
2022/03/21 00:15:10;;;;;;;79.57;42.13;;;2.60;99.90;;;;;;10423324;28;20200;-80
2022/03/21 00:20:33;;;;;;;85.33;40.70;;;2.60;99.90;;;;;;10414730;28;20246;-79
2022/03/21 00:25:55;;;;;;;68.03;36.90;;;2.60;99.90;;;;;;10396612;28;20232;-79
2022/03/21 00:31:17;;;;;;;68.50;35.87;;;2.50;99.90;;;;;;10393884;28;20197;-80
2022/03/21 00:36:41;;;;;;;66.73;35.00;;;2.50;99.90;;;;;;10381519;28;20201;-80
2022/03/21 00:42:10;;;;;;;66.83;35.13;;;2.50;99.90;;;;;;10368262;28;20228;-79
2022/03/21 00:47:32;;;;;;;74.87;36.90;;;2.40;99.90;;;;;;10380815;28;20205;-80
2022/03/21 00:52:56;;;;;;;71.40;36.03;;;2.40;99.90;;;;;;10380673;28;20197;-80
2022/03/21 00:58:19;;;;;;;74.43;38.23;;;2.30;99.90;;;;;;10384481;28;20200;-80
2022/03/21 01:03:41;;;;;;;76.30;35.67;;;2.30;99.90;;;;;;10384188;28;20229;-81
2022/03/21 01:09:03;;;;;;;79.63;36.83;;;2.20;99.90;;;;;;10408509;28;20197;-80
2022/03/21 01:14:25;;;;;;;77.80;37.10;;;2.30;99.90;;;;;;10413376;28;20197;-80
2022/03/21 01:19:47;;;;;;;72.97;34.73;;;2.20;99.90;;;;;;10380386;28;20307;-79
2022/03/21 01:25:10;;;;;;;75.07;35.93;;;2.20;99.90;;;;;;10407949;28;20228;-80
2022/03/21 01:30:32;;;;;;;77.73;36.23;;;2.20;99.90;;;;;;10407291;28;20193;-80
2022/03/21 01:35:54;;;;;;;67.00;34.17;;;2.10;99.90;;;;;;10380805;28;20201;-80
2022/03/21 01:41:16;;;;;;;69.90;33.33;;;2.10;99.90;;;;;;10384971;28;20213;-80
2022/03/21 01:46:39;;;;;;;74.13;35.87;;;2.10;99.90;;;;;;10401803;28;20507;-79
2022/03/21 01:52:01;;;;;;;70.37;33.37;;;2.10;99.90;;;;;;10387316;28;20198;-80
2022/03/21 01:57:23;;;;;;;67.47;32.57;;;2.00;99.90;;;;;;10395910;28;20210;-80
2022/03/21 02:02:45;;;;;;;75.13;36.27;;;2.00;99.90;;;;;;10395599;28;20231;-80
2022/03/21 02:08:08;;;;;;;75.00;34.43;;;1.80;99.90;;;;;;10387028;28;20197;-80
2022/03/21 02:13:31;;;;;;;74.27;35.80;;;1.90;99.90;;;;;;10386482;28;20263;-79
2022/03/21 02:18:54;;;;;;;71.73;35.43;;;2.00;99.90;;;;;;10386295;28;20213;-79
2022/03/21 02:24:50;;;;;;;72.00;34.43;;;1.90;99.90;;;;;;10399917;28;20228;-79
2022/03/21 02:30:14;;;;;;;61.60;32.93;;;1.90;99.90;;;;;;10386093;28;20196;-80
2022/03/21 02:35:36;;;;;;;59.87;31.90;;;1.80;99.90;;;;;;10386017;28;20265;-80
2022/03/21 02:40:58;;;;;;;59.90;32.17;;;1.80;99.90;;;;;;10385312;28;20519;-80
2022/03/21 02:46:21;;;;;;;67.47;32.10;;;1.80;99.90;;;;;;10399002;28;20228;-79
2022/03/21 02:51:43;;;;;;;59.40;32.33;;;1.80;99.90;;;;;;10384421;28;20454;-80
2022/03/21 02:57:05;;;;;;;60.20;32.77;;;1.70;99.90;;;;;;10395994;28;20214;-79
2022/03/21 03:02:27;;;;;;;63.53;33.67;;;1.70;99.90;;;;;;10417940;28;20270;-80
2022/03/21 03:07:49;;;;;;;68.20;34.10;;;1.70;99.90;;;;;;10426274;28;20550;-81
2022/03/21 03:13:11;;;;;;;62.60;32.53;;;1.60;99.90;;;;;;10417129;28;20255;-80
2022/03/21 03:18:33;;;;;;;58.10;31.37;;;1.50;99.90;;;;;;10416951;28;20208;-80
2022/03/21 03:23:56;;;;;;;62.33;30.63;;;1.50;99.90;;;;;;10384270;28;20559;-81
2022/03/21 03:29:18;;;;;;;62.90;31.20;;;1.50;99.90;;;;;;10397728;28;20247;-80
2022/03/21 03:34:40;;;;;;;54.87;30.17;;;1.50;99.90;;;;;;10370122;28;20213;-80
2022/03/21 03:40:04;;;;;;;63.10;31.53;;;1.50;99.90;;;;;;10397075;28;20530;-80
2022/03/21 03:45:26;;;;;;;54.07;29.93;;;1.50;99.90;;;;;;10382432;28;20230;-81
2022/03/21 03:50:48;;;;;;;59.63;32.00;;;1.40;99.90;;;;;;10369574;28;20268;-80
2022/03/21 03:56:10;;;;;;;61.10;32.33;;;1.30;99.90;;;;;;10371849;28;20208;-80
2022/03/21 04:01:32;;;;;;;62.73;34.50;;;1.30;99.90;;;;;;10435629;28;20279;-81
2022/03/21 04:06:54;;;;;;;67.17;34.70;;;1.30;99.90;;;;;;10396009;28;20220;-80
2022/03/21 04:12:16;;;;;;;60.50;33.60;;;1.30;99.90;;;;;;10396093;28;20227;-81
2022/03/21 04:17:38;;;;;;;63.53;33.10;;;1.20;99.90;;;;;;10395597;28;20396;-81
2022/03/21 04:23:00;;;;;;;61.30;33.43;;;1.10;99.90;;;;;;10368347;28;20227;-80
2022/03/21 04:28:22;;;;;;;58.53;32.47;;;1.10;99.90;;;;;;10395366;28;20243;-80
2022/03/21 04:33:45;;;;;;;64.77;34.17;;;0.90;99.90;;;;;;10381457;28;20240;-81
2022/03/21 04:39:07;;;;;;;63.87;33.50;;;0.90;99.90;;;;;;10367453;28;20199;-80
2022/03/21 04:44:29;;;;;;;63.97;33.67;;;0.80;99.90;;;;;;10394564;28;20273;-80
2022/03/21 04:49:51;;;;;;;68.30;35.40;;;0.80;99.90;;;;;;10381082;28;20227;-81
2022/03/21 04:55:15;;;;;;;82.93;39.97;;;0.80;99.90;;;;;;10363346;28;20315;-81
2022/03/21 05:00:38;;;;;;;88.20;40.57;;;0.80;99.90;;;;;;10430028;28;20227;-79
2022/03/21 05:06:01;;;;;;;95.03;44.10;;;0.80;99.90;;;;;;10380940;28;20238;-80
2022/03/21 05:11:23;;;;;;;101.03;45.20;;;0.80;99.90;;;;;;10394214;28;20246;-80
2022/03/21 05:16:49;;;;;;;91.37;41.80;;;0.80;99.90;;;;;;10385992;28;20196;-80
2022/03/21 05:22:11;;;;;;;82.37;39.20;;;0.80;99.90;;;;;;10401991;28;20207;-79
2022/03/21 05:30:57;;;;;;;83.50;38.13;;;0.80;99.90;;;;;;10402165;28;20201;-80
2022/03/21 05:39:10;;;;;;;83.80;37.40;;;1.10;99.90;;;;;;10387940;28;20208;-80
2022/03/21 05:44:32;;;;;;;90.03;40.07;;;1.20;99.90;;;;;;10401183;28;20273;-80
2022/03/21 05:49:54;;;;;;;90.00;40.87;;;1.30;99.90;;;;;;10387477;28;20272;-79
2022/03/21 05:55:17;;;;;;;81.87;38.33;;;1.50;99.90;;;;;;10387169;28;20287;-79
2022/03/21 06:00:39;;;;;;;76.27;37.63;;;1.70;99.90;;;;;;10399661;28;20206;-79
2022/03/21 06:06:01;;;;;;;86.53;41.47;;;1.80;99.90;;;;;;10400382;28;20223;-80
2022/03/21 06:11:23;;;;;;;102.43;53.20;;;2.00;99.90;;;;;;10372971;28;20256;-81
2022/03/21 06:16:46;;;;;;;137.63;67.07;;;2.10;99.90;;;;;;10386655;28;20220;-80
2022/03/21 06:22:08;;;;;;;147.67;73.50;;;2.30;99.90;;;;;;10372876;28;20213;-80
2022/03/21 06:27:31;;;;;;;164.70;76.87;;;2.60;99.90;;;;;;10384537;28;20204;-80
2022/03/21 06:32:53;;;;;;;129.27;65.43;;;2.80;99.90;;;;;;10386021;28;20219;-80
2022/03/21 06:38:15;;;;;;;103.20;50.03;;;3.10;99.90;;;;;;10385253;28;20205;-79
2022/03/21 06:43:37;;;;;;;77.30;38.40;;;3.40;99.90;;;;;;10384914;28;20220;-81
2022/03/21 06:48:59;;;;;;;63.47;34.47;;;3.80;98.60;;;;;;10385066;28;20189;-81
2022/03/21 06:54:21;;;;;;;64.57;31.63;;;4.00;98.20;;;;;;10370972;28;20213;-81
2022/03/21 06:59:45;;;;;;;50.40;27.37;;;4.50;96.20;;;;;;10406274;28;20202;-81
2022/03/21 07:05:08;;;;;;;48.97;25.17;;;5.10;95.40;;;;;;10343669;28;20527;-81
2022/03/21 07:10:34;;;;;;;43.27;22.90;;;6.40;91.60;;;;;;10357022;28;20431;-80
2022/03/21 07:15:56;;;;;;;38.83;20.70;;;9.00;57.70;;;;;;10386104;28;20207;-80
2022/03/21 07:21:19;;;;;;;33.55;20.23;;;10.90;41.80;;;;;;10384084;28;20274;-82
2022/03/21 07:26:41;;;;;;;38.33;22.20;;;11.70;33.50;;;;;;10369912;28;20232;-82
2022/03/21 07:32:04;;;;;;;32.80;20.42;;;12.70;29.70;;;;;;10369699;28;20201;-82
2022/03/21 07:37:26;;;;;;;30.33;19.02;;;;;;;;;;10396165;28;20197;-81
2022/03/21 07:42:49;;;;;;;29.40;21.50;;;14.20;23.80;;;;;;10397806;28;20223;-82
2022/03/21 07:48:11;;;;;;;31.67;19.83;;;;;;;;;;10382456;28;20272;-82
2022/03/21 07:53:33;;;;;;;27.35;19.88;;;15.30;20.30;;;;;;10368367;28;20205;-82
2022/03/21 07:58:59;;;;;;;26.42;17.73;;;15.30;19.90;;;;;;10404216;28;20223;-82
2022/03/21 08:04:21;;;;;;;23.90;16.40;;;15.80;18.70;;;;;;10372631;28;20227;-82
2022/03/21 08:09:44;;;;;;;23.27;16.48;;;15.70;17.80;;;;;;10396549;28;20407;-81
2022/03/21 08:15:07;;;;;;;22.95;15.60;;;16.10;17.10;;;;;;10395308;28;20193;-81
2022/03/21 08:20:34;;;;;;;32.40;17.73;;;16.90;16.40;;;;;;10395483;28;20515;-80
2022/03/21 08:25:59;;;;;;;26.20;15.25;;;16.90;15.40;;;;;;10395296;28;20303;-80
2022/03/21 08:31:22;;;;;;;23.60;15.98;;;17.20;14.60;;;;;;10337799;28;20256;-80
2022/03/21 08:36:45;;;;;;;24.85;14.55;;;17.50;14.30;;;;;;10349737;28;20215;-82
2022/03/21 08:42:07;;;;;;;16.77;13.05;;;17.50;13.60;;;;;;10375573;28;20205;-81
2022/03/21 08:47:29;;;;;;;20.38;12.48;;;17.90;12.70;;;;;;10376639;28;20232;-81
2022/03/21 08:52:52;;;;;;;20.10;12.13;;;18.50;12.40;;;;;;10408846;28;20511;-88
2022/03/21 08:58:15;;;;;;;21.35;12.40;;;18.40;12.50;;;;;;10391528;28;20212;-82
2022/03/21 09:03:37;;;;;;;18.83;12.40;;;18.70;11.70;;;;;;10399170;28;20312;-83
2022/03/21 09:09:00;;;;;;;15.40;11.82;;;19.00;11.20;;;;;;10377269;28;20204;-80
2022/03/21 09:14:22;;;;;;;24.80;14.18;;;18.70;11.20;;;;;;10379023;28;20232;-85
2022/03/21 09:19:44;;;;;;;18.70;13.13;;;18.10;11.60;;;;;;10376634;28;20272;-84
2022/03/21 09:25:07;;;;;;;18.80;13.15;;;17.80;12.10;;;;;;10403471;28;20244;-82
2022/03/21 09:30:29;;;;;;;24.52;13.20;;;17.80;12.40;;;;;;10368620;28;20205;-83
2022/03/21 09:35:52;;;;;;;18.98;11.57;;;18.30;12.00;;;;;;10377913;28;20201;-83
2022/03/21 09:41:14;;;;;;;15.50;11.00;;;18.70;10.90;;;;;;10408776;28;20201;-84
2022/03/21 09:46:41;;;;;;;12.43;9.15;;;19.40;9.90;;;;;;10403673;28;20316;-83
2022/03/21 09:52:04;;;;;;;14.50;9.27;;;19.40;8.80;;;;;;10363039;28;20201;-86
2022/03/21 09:57:26;;;;;;;14.10;9.20;;;20.30;9.10;;;;;;10394897;28;20221;-83
2022/03/21 10:02:48;;;;;;;13.95;9.82;;;20.60;7.80;;;;;;10390009;28;20193;-84
2022/03/21 10:08:15;;;;;;;17.42;9.00;;;20.60;7.30;;;;;;10348141;28;20212;-83
2022/03/21 10:13:38;;;;;;;20.23;9.02;;;21.10;6.60;;;;;;10358484;28;20320;-83
2022/03/21 10:19:00;;;;;;;11.43;8.15;;;20.90;7.20;;;;;;10383096;28;20211;-83
2022/03/21 10:24:22;;;;;;;11.40;7.47;;;21.10;6.90;;;;;;10406073;28;20211;-85
2022/03/21 10:29:52;;;;;;;11.55;8.55;;;21.60;6.90;;;;;;10414132;28;20220;-85
2022/03/21 10:35:17;;;;;;;12.27;7.82;;;21.60;6.50;;;;;;10353878;28;20242;-81
2022/03/21 10:40:45;;;;;;;9.50;7.30;;;21.60;6.30;;;;;;10367031;28;20205;-85
2022/03/21 10:46:09;;;;;;;11.98;8.13;;;22.40;6.00;;;;;;10382928;28;20213;-81
2022/03/21 10:51:48;;;;;;;11.02;7.40;;;22.20;5.40;;;;;;10376585;28;20280;-84
2022/03/21 10:57:39;;;;;;;12.48;8.25;;;22.70;5.80;;;;;;10398480;28;20292;-83
2022/03/21 11:03:01;;;;;;;12.43;8.43;;;22.50;5.50;;;;;;10440623;28;20201;-84
2022/03/21 11:08:23;;;;;;;13.07;8.60;;;22.30;5.60;;;;;;10368393;28;20212;-84
2022/03/21 11:13:46;;;;;;;10.98;7.60;;;22.30;5.90;;;;;;10377016;28;20550;-84
2022/03/21 11:19:11;;;;;;;9.65;6.93;;;22.60;5.60;;;;;;10379944;28;20370;-89
2022/03/21 11:24:38;;;;;;;12.32;7.75;;;22.50;5.10;;;;;;10381929;28;20200;-82
2022/03/21 11:30:43;;;;;;;10.63;7.72;;;22.00;5.40;;;;;;10393989;28;20433;-85
2022/03/21 11:36:11;;;;;;;12.27;8.43;;;22.60;5.00;;;;;;10377498;28;20232;-81
2022/03/21 11:41:33;;;;;;;13.50;8.07;;;22.40;4.60;;;;;;10392857;28;20203;-82
2022/03/21 11:47:24;;;;;;;12.38;8.95;;;22.40;5.10;;;;;;10391370;28;20251;-82
2022/03/21 11:53:10;;;;;;;15.20;8.90;;;22.10;4.90;;;;;;10376141;28;20193;-82
2022/03/21 11:58:39;;;;;;;10.00;7.60;;;21.60;4.90;;;;;;10379429;28;20254;-82
2022/03/21 12:04:23;;;;;;;13.20;8.80;;;21.40;5.50;;;;;;10400716;28;20273;-82
2022/03/21 12:09:47;;;;;;;13.43;9.18;;;22.00;5.10;;;;;;10365171;28;20245;-82
2022/03/21 12:15:29;;;;;;;10.70;8.27;;;21.70;5.00;;;;;;10365622;28;20228;-81
2022/03/21 12:20:52;;;;;;;15.55;9.77;;;22.00;5.20;;;;;;10375736;28;20224;-81
2022/03/21 12:26:33;;;;;;;17.10;9.40;;;21.70;5.00;;;;;;10374911;28;20197;-80
2022/03/21 12:32:34;;;;;;;13.05;9.25;;;21.70;5.70;;;;;;10373945;28;20206;-83
2022/03/21 12:38:00;;;;;;;12.85;9.52;;;21.20;5.80;;;;;;10393170;28;20200;-78
2022/03/21 12:43:41;;;;;;;19.75;10.45;;;21.40;5.50;;;;;;10393823;28;20248;-79
2022/03/21 12:49:04;;;;;;;13.40;8.27;;;21.30;5.30;;;;;;10410509;28;20239;-80
2022/03/21 12:54:27;;;;;;;14.68;7.50;;;20.90;5.50;;;;;;10430171;28;20593;-82
2022/03/21 12:59:48;;;;;;;12.07;8.65;;;21.00;6.10;;;;;;10407673;28;20224;-80
2022/03/21 13:10:54;;;;;;;12.73;8.65;;;19.70;6.80;;;;;;10376413;28;20237;-80
2022/03/21 13:16:16;;;;;;;15.77;7.78;;;19.30;7.00;;;;;;10379001;28;20443;-80
2022/03/21 13:21:38;;;;;;;11.57;8.90;;;19.10;7.00;;;;;;10392545;28;20203;-79
2022/03/21 13:27:01;;;;;;;10.48;8.32;;;19.10;7.10;;;;;;10380484;28;20266;-81
2022/03/21 13:32:22;;;;;;;13.95;10.30;;;19.70;6.60;;;;;;10421316;28;20288;-79
2022/03/21 13:38:04;;;;;;;14.85;10.38;;;20.10;7.20;;;;;;10424712;28;20263;-90
2022/03/21 13:43:28;;;;;;;16.05;10.75;;;20.00;7.60;;;;;;10399700;28;20224;-84
2022/03/21 13:48:51;;;;;;;21.15;12.57;;;19.50;7.90;;;;;;10402006;28;20211;-83
2022/03/21 13:54:15;;;;;;;18.02;11.75;;;19.50;8.00;;;;;;10415542;28;20286;-80
2022/03/21 13:59:37;;;;;;;20.67;11.75;;;19.00;8.70;;;;;;10413324;28;20211;-81
2022/03/21 14:05:12;;;;;;;26.25;12.38;;;18.50;8.80;;;;;;10406133;28;20204;-83
2022/03/21 14:10:43;;;;;;;19.10;13.20;;;18.00;9.30;;;;;;10382123;28;20284;-83
2022/03/21 14:16:07;;;;;;;19.70;14.10;;;17.70;10.20;;;;;;10378430;28;20227;-87
2022/03/21 14:21:52;;;;;;;20.30;14.68;;;17.10;10.70;;;;;;10405411;28;20253;-84
2022/03/21 14:27:38;;;;;;;21.80;14.45;;;16.40;11.50;;;;;;10344869;28;20545;-85
2022/03/21 14:33:02;;;;;;;29.67;15.52;;;15.90;11.90;;;;;;10346097;28;20207;-88
2022/03/21 14:38:31;;;;;;;20.40;13.77;;;15.60;12.30;;;;;;10342673;28;20209;-88
2022/03/21 14:43:56;;;;;;;30.25;19.85;;;15.20;12.80;;;;;;10340044;28;20208;-85
2022/03/21 14:49:19;;;;;;;40.95;22.55;;;15.00;13.10;;;;;;10332899;28;20232;-85
2022/03/21 14:54:42;;;;;;;29.15;18.08;;;15.00;13.30;;;;;;10312368;28;20285;-85
2022/03/21 15:00:05;;;;;;;18.17;13.45;;;14.90;13.40;;;;;;10321688;28;20224;-85
2022/03/21 15:05:29;;;;;;;24.63;14.00;;;14.80;13.50;;;;;;10420719;28;20223;-84
2022/03/21 15:10:53;;;;;;;44.85;20.50;;;14.80;13.10;;;;;;10410816;28;20228;-91
2022/03/21 15:16:19;;;;;;;22.20;13.88;;;14.70;13.40;;;;;;10417086;28;20233;-92
2022/03/21 15:21:47;;;;;;;20.67;13.65;;;14.40;13.80;;;;;;10416090;28;20244;-83
2022/03/21 15:27:10;;;;;;;21.55;13.93;;;14.40;13.70;;;;;;10372579;28;20207;-82
2022/03/21 15:32:38;;;;;;;21.98;14.00;;;14.40;13.50;;;;;;10380979;23;20252;-83
2022/03/21 17:08:26;;;;;;;;;;;;;;;;;;;;;
